Airfield :
LOGIN :

Register | Disclaimer

   EN    FR    IT 

 










Legend :    VFR   Marginal VFR   IFR   Intensive IFR   Very Intensive IFR
Visi :
Ceiling :
>= 8 km
>= 3000ft
5 to 8 km
1000 to 3000 ft
1500m to 5 km
500 to 1000 ft
800 to 1500m
200 to 500 ft
< 800m
< 200 ft
Symbols :   Thunderstorms  Fog  Heavy snow  Heavy precipitations  Wind > 20 kt
SIGMETs :     Misc.  Thunderstorms  Icing  Turbulence  Mountain Waves  Volcanic Ashes






- Airport Elevation : 335 ft
- IATA code : BEG


LYBE - Belgrade Nikola Tesla

CURRENT METAR :
  • 251230Z 03003KT 350V070 CAVOK 17/02 Q1008 NOSIG

EXPIRED METARs :
  • 251200Z 04003KT 020V080 CAVOK 16/02 Q1009 NOSIG
  • 251130Z 06004KT CAVOK 15/02 Q1009 NOSIG
  • 251100Z VRB01KT CAVOK 14/02 Q1010 NOSIG
  • 251030Z VRB01KT CAVOK 13/02 Q1010 NOSIG
  • 251000Z 16003KT 130V190 CAVOK 12/01 Q1011 NOSIG

TAF TAF LYBE
Valid from the 25 at 12:00 until the 26 at 12:00 UTC


251100Z 2512/2612 22005KT CAVOK TX15/2512Z TN08/2606Z
BECMG 2607/2609 22015KT



MET'MAP, your aeronautical weather chart ! - Copyright ORBIFLY December 2007 - Disclaimer

ORBIFLY MET'MAP TEAM :

Programming & Development : Alexandra Zaïnal
Concept & original design : Baudouin d'Aumeries
Assistance for programming : Marc-Olivier Méhu
Technical & hardware support : Manuel Goepfert

Contact : metmap@orbifly.com




SOURCES & CREDITS :

   NOAA